Observations for Trim Market St
| Time | AQI | Temp °C | Hum % | Pres Pa | CO μg/m³ | H₂S μg/m³ | NO μg/m³ | NO₂ μg/m³ | O₃ μg/m³ | SO₂ μg/m³ | PM1 μg/m³ | PM2.5 μg/m³ | PM10 μg/m³ |
|---|---|---|---|---|---|---|---|---|---|---|---|---|---|
| Saturday 22 August 2026 | |||||||||||||
| 17:46 | 2 | 23.1 | 38 | 65,495 | 0.01 | 0 | 1.72 | 7.37 | 69.01 | 0 | 3.56 | 7.19 | 10.78 |
| 17:42 | 2 | 23.1 | 38 | 65,517 | 0.07 | 0 | 1.67 | 34 | 59.18 | 0 | 2.85 | 6.13 | 8.34 |
| 17:38 | 2 | 23.1 | 38 | 65,540 | 0 | 0 | 1.16 | 12.95 | 67.66 | 0 | 2.85 | 8.26 | 12.41 |
| 17:31 | 2 | 23.1 | 38 | 65,550 | 0 | 0 | 1.08 | 14.04 | 67.76 | 0 | 2.14 | 7.73 | 11.6 |
| 17:30 | 2 | 23.1 | 38 | 65,544 | 0 | 0 | 1.09 | 12 | 78.87 | 0 | 2.14 | 8.8 | 10.79 |
| 17:29 | 2 | 23.1 | 38 | 65,538 | 0.07 | 0 | 1.26 | 12 | 68.29 | 0 | 2.85 | 7.2 | 10.78 |
| 17:28 | 2 | 23.2 | 39 | 65,560 | 0 | 0 | 1.62 | 8.73 | 69.55 | 0 | 2.14 | 6.66 | 8.34 |
| 17:27 | 2 | 23.2 | 39 | 65,564 | 0 | 0 | 1.67 | 8.5 | 76.67 | 0 | 2.85 | 7.71 | 11.59 |
| 17:25 | 2 | 23.3 | 39 | 65,566 | 0.13 | 0 | 1.6 | 48.13 | 55.87 | 0 | 2.85 | 7.72 | 9.15 |
| 17:24 | 2 | 23.3 | 38 | 65,562 | 0.09 | 0 | 1.71 | 33.82 | 59.54 | 0 | 2.14 | 7.2 | 9.97 |
| 17:23 | 2 | 23.4 | 38 | 65,562 | 0 | 0 | 1.61 | 32.47 | 60.98 | 0 | 1.43 | 6.14 | 7.53 |
| 17:21 | 2 | 23.4 | 38 | 65,554 | 0 | 0 | 1.69 | 12.35 | 67.6 | 0 | 2.85 | 7.74 | 11.6 |
| 17:20 | 2 | 23.5 | 38 | 65,548 | 0.01 | 0 | 1.42 | 12.67 | 73.96 | 0 | 4.99 | 9.87 | 13.24 |
| 17:17 | 2 | 23.6 | 38 | 65,568 | 0.02 | 0 | 1.5 | 15.4 | 68.27 | 0 | 3.56 | 8.28 | 13.24 |
| 17:14 | 2 | 23.7 | 38 | 65,600 | 0.03 | 0 | 1.26 | 8.66 | 70.72 | 0 | 2.85 | 7.73 | 9.97 |
| 17:09 | 2 | 23.7 | 39 | 65,574 | 0.3 | 0 | 1.65 | 11.25 | 70.01 | 0 | 2.14 | 7.18 | 9.96 |
| 17:08 | 2 | 23.6 | 39 | 65,568 | 0.32 | 0 | 1.6 | 36.01 | 59.35 | 0 | 4.99 | 10.37 | 13.21 |
| 17:02 | 2 | 23.1 | 39 | 65,517 | 0.02 | 0 | 1.5 | 57.9 | 45.57 | 0 | 2.85 | 6.62 | 9.14 |
| 17:01 | 2 | 23.1 | 39 | 65,505 | 0 | 0 | 1.5 | 8.24 | 68.55 | 0 | 2.85 | 8.73 | 11.57 |
| 17:00 | 2 | 23 | 40 | 65,517 | 0.16 | 0 | 1.51 | 35.98 | 57.83 | 0 | 2.14 | 7.14 | 9.14 |